Time;durP1;ratioP1;P1;durP2;ratioP2;P2;SDS_P1;SDS_P2;PMS_P1;PMS_P2;Temp;Humidity;BMP_temperature;BMP_pressure;BME280_temperature;BME280_humidity;BME280_pressure;Samples;Min_cycle;Max_cycle;Signal;HPM_P1;HPM_P2
2023/03/23 00:01:36;;;;;;;;;;;;;;;;;;2209361;67;1123;-69
2023/03/23 00:04:12;;;;;;;;;;;;;;;;;;2208942;67;1240;-69
2023/03/23 00:06:45;;;;;;;;;;;;;;;;;;2209328;59;1037;-69
2023/03/23 00:09:15;;;;;;;;;;;;;;;;;;2208526;67;1213;-68
2023/03/23 00:11:46;;;;;;;;;;;;;;;;;;2208640;67;2100;-69
2023/03/23 00:14:22;;;;;;;;;;;;;;;;;;2209200;67;1137;-68
2023/03/23 00:16:52;;;;;;;;;;;;;;;;;;2209937;67;1073;-69
2023/03/23 00:19:22;;;;;;;;;;;;;;;;;;2208780;67;1218;-68
2023/03/23 00:21:53;;;;;;;;;;;;;;;;;;2209633;67;1208;-68
2023/03/23 00:24:23;;;;;;;;;;;;;;;;;;2210613;67;1165;-69
2023/03/23 00:26:54;;;;;;;;;;;;;;;;;;2209425;67;1145;-68
2023/03/23 00:29:25;;;;;;;;;;;;;;;;;;2208969;67;1237;-68
2023/03/23 00:31:58;;;;;;;;;;;;;;;;;;2209193;59;1920;-68
2023/03/23 00:34:33;;;;;;;;;;;;;;;;;;2211935;67;1605;-69
2023/03/23 00:37:04;;;;;;;;;;;;;;;;;;2209472;67;1033;-69
2023/03/23 00:39:36;;;;;;;;;;;;;;;;;;2210040;67;1326;-68
2023/03/23 00:42:07;;;;;;;;;;;;;;;;;;2211859;59;1234;-69
2023/03/23 00:44:39;;;;;;;;;;;;;;;;;;2209607;67;1302;-69
2023/03/23 00:47:12;;;;;;;;;;;;;;;;;;2211545;59;1113;-68
2023/03/23 00:49:42;;;;;;;;;;;;;;;;;;2209183;67;1262;-68
2023/03/23 00:52:13;;;;;;;;;;;;;;;;;;2210341;67;1980;-69
2023/03/23 00:54:43;;;;;;;;;;;;;;;;;;2208763;67;1310;-69
2023/03/23 00:57:19;;;;;;;;;;;;;;;;;;2210066;67;1088;-68
2023/03/23 00:59:50;;;;;;;;;;;;;;;;;;2209223;67;1278;-68
2023/03/23 01:02:24;;;;;;;;;;;;;;;;;;2209109;67;1131;-68
2023/03/23 01:04:54;;;;;;;;;;;;;;;;;;2210708;67;1176;-68
2023/03/23 01:07:27;;;;;;;;;;;;;;;;;;2210446;67;1467;-68
2023/03/23 01:10:00;;;;;;;;;;;;;;;;;;2208910;67;1138;-68
2023/03/23 01:12:30;;;;;;;;;;;;;;;;;;2209946;67;1961;-68
2023/03/23 01:15:01;;;;;;;;;;;;;;;;;;2208450;67;1476;-68
2023/03/23 01:17:31;;;;;;;;;;;;;;;;;;2209255;67;1239;-68
2023/03/23 01:20:04;;;;;;;;;;;;;;;;;;2210049;67;1196;-68
2023/03/23 01:22:34;;;;;;;;;;;;;;;;;;2210953;67;2169;-67
2023/03/23 01:25:05;;;;;;;;;;;;;;;;;;2208554;67;1263;-68
2023/03/23 01:27:36;;;;;;;;;;;;;;;;;;2209360;67;1212;-68
2023/03/23 01:30:10;;;;;;;;;;;;;;;;;;2210876;67;1236;-68
2023/03/23 01:32:40;;;;;;;;;;;;;;;;;;2207975;67;1976;-69
2023/03/23 01:35:12;;;;;;;;;;;;;;;;;;2209618;67;1236;-68
2023/03/23 01:37:43;;;;;;;;;;;;;;;;;;2212325;67;1291;-68
2023/03/23 01:40:14;;;;;;;;;;;;;;;;;;2209805;59;1225;-68
2023/03/23 01:42:45;;;;;;;;;;;;;;;;;;2209511;67;1251;-69
2023/03/23 01:45:25;;;;;;;;;;;;;;;;;;2209333;67;1124;-68
2023/03/23 01:47:59;;;;;;;;;;;;;;;;;;2212008;67;1586;-68
2023/03/23 01:50:38;;;;;;;;;;;;;;;;;;2209988;67;1212;-68
2023/03/23 01:53:10;;;;;;;;;;;;;;;;;;2209353;59;1934;-68
2023/03/23 01:55:50;;;;;;;;;;;;;;;;;;2209248;67;1227;-68
2023/03/23 01:58:25;;;;;;;;;;;;;;;;;;2208417;67;1132;-68
2023/03/23 02:00:58;;;;;;;;;;;;;;;;;;2209504;67;1229;-69
2023/03/23 02:03:31;;;;;;;;;;;;;;;;;;2209666;67;1152;-68
2023/03/23 02:06:02;;;;;;;;;;;;;;;;;;2210307;59;1205;-69
2023/03/23 02:08:32;;;;;;;;;;;;;;;;;;2209624;67;1215;-68
2023/03/23 02:11:21;;;;;;;;;;;;;;;;;;;;;
2023/03/23 02:13:55;;;;;;;;;;;;;;;;;;2208780;67;1144;-68
2023/03/23 02:16:43;;;;;;;;;;;;;;;;;;2208898;67;1269;-68
2023/03/23 02:19:41;;;;;;;;;;;;;;;;;;2208913;67;1375;-68
2023/03/23 02:22:22;;;;;;;;;;;;;;;;;;;;;
2023/03/23 02:24:59;;;;;;;;;;;;;;;;;;2209066;67;1169;-68
2023/03/23 02:27:50;;;;;;;;;;;;;;;;;;2208115;67;1263;-69
2023/03/23 02:30:30;;;;;;;;;;;;;;;;;;2208977;67;1459;-69
2023/03/23 02:33:08;;;;;;;;;;;;;;;;;;2209956;67;1940;-69
2023/03/23 02:35:45;;;;;;;;;;;;;;;;;;2210277;67;1514;-68
2023/03/23 02:38:18;;;;;;;;;;;;;;;;;;2209544;67;1253;-69
2023/03/23 02:41:00;;;;;;;;;;;;;;;;;;;;;
2023/03/23 02:43:35;;;;;;;;;;;;;;;;;;2209765;67;1168;-68
2023/03/23 02:46:08;;;;;;;;;;;;;;;;;;2207734;67;1384;-68
2023/03/23 02:48:40;;;;;;;;;;;;;;;;;;2209287;59;1293;-68
2023/03/23 02:51:18;;;;;;;;;;;;;;;;;;2209576;67;1988;-68
2023/03/23 02:53:55;;;;;;;;;;;;;;;;;;2209007;67;1040;-69
2023/03/23 02:56:28;;;;;;;;;;;;;;;;;;2209413;67;1071;-68
2023/03/23 02:59:01;;;;;;;;;;;;;;;;;;2208977;67;1186;-68
2023/03/23 03:01:54;;;;;;;;;;;;;;;;;;2209800;67;1162;-68
2023/03/23 03:04:27;;;;;;;;;;;;;;;;;;2210137;67;1186;-68
2023/03/23 03:07:19;;;;;;;;;;;;;;;;;;2209099;67;1150;-68
2023/03/23 03:09:53;;;;;;;;;;;;;;;;;;2208182;67;1217;-69
2023/03/23 03:12:24;;;;;;;;;;;;;;;;;;2209095;67;1990;-68
2023/03/23 03:15:10;;;;;;;;;;;;;;;;;;2209187;67;1054;-68
2023/03/23 03:17:45;;;;;;;;;;;;;;;;;;2211072;67;1311;-68
2023/03/23 03:20:16;;;;;;;;;;;;;;;;;;2209300;67;1203;-69
2023/03/23 03:22:47;;;;;;;;;;;;;;;;;;2209127;67;1236;-68
2023/03/23 03:25:19;;;;;;;;;;;;;;;;;;2209605;59;1224;-68
2023/03/23 03:27:52;;;;;;;;;;;;;;;;;;2208169;67;1154;-68
2023/03/23 03:30:26;;;;;;;;;;;;;;;;;;2209033;67;1146;-68
2023/03/23 03:33:00;;;;;;;;;;;;;;;;;;2207898;67;1943;-69
2023/03/23 03:35:31;;;;;;;;;;;;;;;;;;2209184;59;1128;-68
2023/03/23 03:38:07;;;;;;;;;;;;;;;;;;2208689;67;1250;-68
2023/03/23 03:40:38;;;;;;;;;;;;;;;;;;2208039;67;1045;-68
2023/03/23 03:43:16;;;;;;;;;;;;;;;;;;2211058;67;1110;-68
2023/03/23 03:45:49;;;;;;;;;;;;;;;;;;2208631;67;1236;-69
2023/03/23 03:48:22;;;;;;;;;;;;;;;;;;2209897;59;1293;-69
2023/03/23 03:50:56;;;;;;;;;;;;;;;;;;2209450;67;1205;-68
2023/03/23 03:53:27;;;;;;;;;;;;;;;;;;2211365;67;1933;-68
2023/03/23 03:55:59;;;;;;;;;;;;;;;;;;2208694;67;1142;-69
2023/03/23 03:58:35;;;;;;;;;;;;;;;;;;2208499;59;1199;-68
2023/03/23 04:01:06;;;;;;;;;;;;;;;;;;2208870;67;1076;-68
2023/03/23 04:03:39;;;;;;;;;;;;;;;;;;2209710;67;1212;-69
2023/03/23 04:06:10;;;;;;;;;;;;;;;;;;2210142;67;1259;-69
2023/03/23 04:08:41;;;;;;;;;;;;;;;;;;2210421;67;1251;-69
2023/03/23 04:11:13;;;;;;;;;;;;;;;;;;2215373;67;1223;-69
2023/03/23 04:13:47;;;;;;;;;;;;;;;;;;2220043;59;1247;-69
2023/03/23 04:16:17;;;;;;;;;;;;;;;;;;2222284;59;1288;-68
2023/03/23 04:18:48;;;;;;;;;;;;;;;;;;2220254;67;1164;-69
2023/03/23 04:21:18;;;;;;;;;;;;;;;;;;2218324;59;1351;-68
2023/03/23 04:23:48;;;;;;;;;;;;;;;;;;2218523;67;1114;-72
2023/03/23 04:26:19;;;;;;;;;;;;;;;;;;2210086;67;1113;-68
2023/03/23 04:28:50;;;;;;;;;;;;;;;;;;2210603;67;1236;-69
2023/03/23 04:31:24;;;;;;;;;;;;;;;;;;2210035;67;1987;-68
2023/03/23 04:33:54;;;;;;;;;;;;;;;;;;2208415;67;1321;-69
2023/03/23 04:36:25;;;;;;;;;;;;;;;;;;2210152;67;1271;-69
2023/03/23 04:38:55;;;;;;;;;;;;;;;;;;2210152;67;1311;-69
2023/03/23 04:41:26;;;;;;;;;;;;;;;;;;2209569;67;1194;-69
2023/03/23 04:43:56;;;;;;;;;;;;;;;;;;2209384;67;1236;-69
2023/03/23 04:46:30;;;;;;;;;;;;;;;;;;2211513;59;1207;-69
2023/03/23 04:49:00;;;;;;;;;;;;;;;;;;2209812;67;1249;-69
2023/03/23 04:51:31;;;;;;;;;;;;;;;;;;2210088;67;1953;-68
2023/03/23 04:54:01;;;;;;;;;;;;;;;;;;2209498;67;1248;-69
2023/03/23 04:56:32;;;;;;;;;;;;;;;;;;2208414;67;1053;-69
2023/03/23 04:59:02;;;;;;;;;;;;;;;;;;2209460;67;1134;-69
2023/03/23 05:01:33;;;;;;;;;;;;;;;;;;2209976;67;1293;-68
2023/03/23 05:04:04;;;;;;;;;;;;;;;;;;2209653;67;1148;-69
2023/03/23 05:06:35;;;;;;;;;;;;;;;;;;2209847;67;1274;-69
2023/03/23 05:09:11;;;;;;;;;;;;;;;;;;2210315;67;1289;-69
2023/03/23 05:11:41;;;;;;;;;;;;;;;;;;2208882;67;1936;-68
2023/03/23 05:14:12;;;;;;;;;;;;;;;;;;2208494;67;1247;-69
2023/03/23 05:16:48;;;;;;;;;;;;;;;;;;2209250;67;1226;-69
2023/03/23 05:19:19;;;;;;;;;;;;;;;;;;2210110;67;1267;-69
2023/03/23 05:21:49;;;;;;;;;;;;;;;;;;2209128;67;1215;-68
2023/03/23 05:24:19;;;;;;;;;;;;;;;;;;2208579;59;1172;-69
2023/03/23 05:26:52;;;;;;;;;;;;;;;;;;2208806;59;1235;-68
2023/03/23 05:29:23;;;;;;;;;;;;;;;;;;2210381;67;1128;-68
2023/03/23 05:31:55;;;;;;;;;;;;;;;;;;2209482;67;1995;-69
2023/03/23 05:34:26;;;;;;;;;;;;;;;;;;2209499;67;1119;-68
2023/03/23 05:36:57;;;;;;;;;;;;;;;;;;2209562;67;1332;-69
2023/03/23 05:39:28;;;;;;;;;;;;;;;;;;2209823;67;1233;-69
2023/03/23 05:41:58;;;;;;;;;;;;;;;;;;2210515;67;1143;-69
2023/03/23 05:44:29;;;;;;;;;;;;;;;;;;2209567;67;1160;-69
2023/03/23 05:46:59;;;;;;;;;;;;;;;;;;2209856;59;1153;-69
2023/03/23 05:49:29;;;;;;;;;;;;;;;;;;2209585;59;1215;-68
2023/03/23 05:52:00;;;;;;;;;;;;;;;;;;2210010;59;1990;-69
2023/03/23 05:54:34;;;;;;;;;;;;;;;;;;2209815;67;1120;-69
2023/03/23 05:57:05;;;;;;;;;;;;;;;;;;2208847;67;1324;-69
2023/03/23 05:59:35;;;;;;;;;;;;;;;;;;2209756;67;1311;-69
2023/03/23 06:02:06;;;;;;;;;;;;;;;;;;2212118;67;1197;-69
2023/03/23 06:04:37;;;;;;;;;;;;;;;;;;2209355;67;1133;-68
2023/03/23 06:07:12;;;;;;;;;;;;;;;;;;2210637;67;1196;-69
2023/03/23 06:09:42;;;;;;;;;;;;;;;;;;2209543;67;1247;-69
2023/03/23 06:12:13;;;;;;;;;;;;;;;;;;2211880;67;1927;-68
2023/03/23 06:14:43;;;;;;;;;;;;;;;;;;2209906;67;1150;-68
2023/03/23 06:17:17;;;;;;;;;;;;;;;;;;2210312;67;1134;-68
2023/03/23 06:19:49;;;;;;;;;;;;;;;;;;2209157;59;1302;-69
2023/03/23 06:22:20;;;;;;;;;;;;;;;;;;2208257;67;1150;-69
2023/03/23 06:24:50;;;;;;;;;;;;;;;;;;2208971;59;1223;-69
2023/03/23 06:27:20;;;;;;;;;;;;;;;;;;2208719;67;1133;-68
2023/03/23 06:29:51;;;;;;;;;;;;;;;;;;2208792;67;1203;-69
2023/03/23 06:32:22;;;;;;;;;;;;;;;;;;2208940;67;1989;-69
2023/03/23 06:34:52;;;;;;;;;;;;;;;;;;2208632;67;1135;-69
2023/03/23 06:37:24;;;;;;;;;;;;;;;;;;2210296;67;1272;-68
2023/03/23 06:39:54;;;;;;;;;;;;;;;;;;2208544;59;1701;-69
2023/03/23 06:42:25;;;;;;;;;;;;;;;;;;2209494;67;1353;-69
2023/03/23 06:45:00;;;;;;;;;;;;;;;;;;2211460;59;1186;-68
2023/03/23 06:47:30;;;;;;;;;;;;;;;;;;2209825;59;1124;-69
2023/03/23 06:50:01;;;;;;;;;;;;;;;;;;2208573;67;1176;-69
2023/03/23 06:52:31;;;;;;;;;;;;;;;;;;2209992;67;1949;-69
2023/03/23 06:55:02;;;;;;;;;;;;;;;;;;2209332;67;1043;-69
2023/03/23 06:57:32;;;;;;;;;;;;;;;;;;2207835;67;1144;-68
2023/03/23 07:00:04;;;;;;;;;;;;;;;;;;2208676;67;1239;-69
2023/03/23 07:02:35;;;;;;;;;;;;;;;;;;2211765;67;1105;-69
2023/03/23 07:05:07;;;;;;;;;;;;;;;;;;2209412;67;1413;-69
2023/03/23 07:07:37;;;;;;;;;;;;;;;;;;2208028;67;1375;-69
2023/03/23 07:10:11;;;;;;;;;;;;;;;;;;2209739;67;1153;-69
2023/03/23 07:12:41;;;;;;;;;;;;;;;;;;2208051;67;1935;-69
2023/03/23 07:15:12;;;;;;;;;;;;;;;;;;2208090;59;1187;-69
2023/03/23 07:17:42;;;;;;;;;;;;;;;;;;2209349;67;1233;-69
2023/03/23 07:20:14;;;;;;;;;;;;;;;;;;2209044;59;1203;-70
2023/03/23 07:22:44;;;;;;;;;;;;;;;;;;2209794;67;1161;-69
2023/03/23 07:25:16;;;;;;;;;;;;;;;;;;2208832;67;1231;-69
2023/03/23 07:27:46;;;;;;;;;;;;;;;;;;2210484;67;1339;-69
2023/03/23 07:30:20;;;;;;;;;;;;;;;;;;2209445;67;1032;-69
2023/03/23 07:32:51;;;;;;;;;;;;;;;;;;2209004;67;2003;-69
2023/03/23 07:35:22;;;;;;;;;;;;;;;;;;2209694;67;1135;-69
2023/03/23 07:37:53;;;;;;;;;;;;;;;;;;2208773;67;1191;-69
2023/03/23 07:40:24;;;;;;;;;;;;;;;;;;2208873;67;1144;-69
2023/03/23 07:42:55;;;;;;;;;;;;;;;;;;2209161;67;1016;-69
2023/03/23 07:45:26;;;;;;;;;;;;;;;;;;2209374;67;1152;-69
2023/03/23 07:47:57;;;;;;;;;;;;;;;;;;2209969;59;1150;-69
2023/03/23 07:50:28;;;;;;;;;;;;;;;;;;2213001;67;1256;-69
2023/03/23 07:52:59;;;;;;;;;;;;;;;;;;2208739;67;1983;-69
2023/03/23 07:55:29;;;;;;;;;;;;;;;;;;2209200;67;1216;-69
2023/03/23 07:58:00;;;;;;;;;;;;;;;;;;2209761;67;1234;-69
2023/03/23 08:00:32;;;;;;;;;;;;;;;;;;2209372;67;1244;-69
2023/03/23 08:03:04;;;;;;;;;;;;;;;;;;2208743;67;1000;-69
2023/03/23 08:05:34;;;;;;;;;;;;;;;;;;2209362;67;1128;-69
2023/03/23 08:08:06;;;;;;;;;;;;;;;;;;2209803;67;1265;-69
2023/03/23 08:10:37;;;;;;;;;;;;;;;;;;2209855;59;1159;-69
2023/03/23 08:13:08;;;;;;;;;;;;;;;;;;2208638;67;1985;-69
2023/03/23 08:15:48;;;;;;;;;;;;;;;;;;2209183;59;1176;-69
2023/03/23 08:18:19;;;;;;;;;;;;;;;;;;2208800;67;1296;-69
2023/03/23 08:20:49;;;;;;;;;;;;;;;;;;2209206;67;1235;-69
2023/03/23 08:23:21;;;;;;;;;;;;;;;;;;2209303;59;1156;-69
2023/03/23 08:25:51;;;;;;;;;;;;;;;;;;2212308;59;1562;-69
2023/03/23 08:28:22;;;;;;;;;;;;;;;;;;2209057;67;1179;-68
2023/03/23 08:30:52;;;;;;;;;;;;;;;;;;2208888;67;1088;-69
2023/03/23 08:33:22;;;;;;;;;;;;;;;;;;2209442;67;1932;-69
2023/03/23 08:35:56;;;;;;;;;;;;;;;;;;2210189;67;1080;-70
2023/03/23 08:38:27;;;;;;;;;;;;;;;;;;2212441;67;1455;-69
2023/03/23 08:40:58;;;;;;;;;;;;;;;;;;2209805;67;1124;-69
2023/03/23 08:43:29;;;;;;;;;;;;;;;;;;2209409;67;1144;-69
2023/03/23 08:45:59;;;;;;;;;;;;;;;;;;2209250;67;1036;-69
2023/03/23 08:48:29;;;;;;;;;;;;;;;;;;2208990;59;1290;-69
2023/03/23 08:51:00;;;;;;;;;;;;;;;;;;2208986;67;1129;-69
2023/03/23 08:53:31;;;;;;;;;;;;;;;;;;2209106;59;1967;-69
2023/03/23 08:56:06;;;;;;;;;;;;;;;;;;2209576;67;1118;-69
2023/03/23 08:58:38;;;;;;;;;;;;;;;;;;2209448;59;1204;-70
2023/03/23 09:01:09;;;;;;;;;;;;;;;;;;2209929;67;1080;-69
2023/03/23 09:03:40;;;;;;;;;;;;;;;;;;2209024;67;1110;-69
2023/03/23 09:06:12;;;;;;;;;;;;;;;;;;2209118;67;1310;-69
2023/03/23 09:08:42;;;;;;;;;;;;;;;;;;2209516;59;1182;-69
2023/03/23 09:11:12;;;;;;;;;;;;;;;;;;2208657;67;1188;-69
2023/03/23 09:13:43;;;;;;;;;;;;;;;;;;2211910;67;1980;-69
2023/03/23 09:16:14;;;;;;;;;;;;;;;;;;2209448;67;1248;-69
2023/03/23 09:18:44;;;;;;;;;;;;;;;;;;2208187;67;1277;-69
2023/03/23 09:21:14;;;;;;;;;;;;;;;;;;2210032;67;1007;-69
2023/03/23 09:23:45;;;;;;;;;;;;;;;;;;2209422;59;1315;-69
2023/03/23 09:26:15;;;;;;;;;;;;;;;;;;2209831;67;1393;-69
2023/03/23 09:28:46;;;;;;;;;;;;;;;;;;2209389;67;1288;-69
2023/03/23 09:31:16;;;;;;;;;;;;;;;;;;2210322;67;1072;-69
2023/03/23 09:33:46;;;;;;;;;;;;;;;;;;2209739;67;1994;-69
2023/03/23 09:36:17;;;;;;;;;;;;;;;;;;2209252;59;1133;-69
2023/03/23 09:38:48;;;;;;;;;;;;;;;;;;2210163;67;1236;-69
2023/03/23 09:41:21;;;;;;;;;;;;;;;;;;2209361;67;1287;-69
2023/03/23 09:43:52;;;;;;;;;;;;;;;;;;2209499;67;1091;-69
2023/03/23 09:46:40;;;;;;;;;;;;;;;;;;2209681;59;1167;-69
2023/03/23 09:49:31;;;;;;;;;;;;;;;;;;2209418;67;1231;-69
2023/03/23 09:52:03;;;;;;;;;;;;;;;;;;2208308;67;1929;-68
2023/03/23 09:54:41;;;;;;;;;;;;;;;;;;2209610;67;1065;-70
2023/03/23 09:57:35;;;;;;;;;;;;;;;;;;2209558;59;1206;-69
2023/03/23 10:00:16;;;;;;;;;;;;;;;;;;2207925;67;1157;-69
2023/03/23 10:02:50;;;;;;;;;;;;;;;;;;2209642;67;1253;-69
2023/03/23 10:05:35;;;;;;;;;;;;;;;;;;2209395;67;1072;-69
2023/03/23 10:08:12;;;;;;;;;;;;;;;;;;2209448;67;1285;-69
2023/03/23 10:11:01;;;;;;;;;;;;;;;;;;2209586;67;1219;-69
2023/03/23 10:13:48;;;;;;;;;;;;;;;;;;2209353;67;1981;-69
2023/03/23 10:16:39;;;;;;;;;;;;;;;;;;2209945;67;1373;-70
2023/03/23 10:19:11;;;;;;;;;;;;;;;;;;2209826;59;1299;-69
2023/03/23 10:21:51;;;;;;;;;;;;;;;;;;2210378;67;1322;-69
2023/03/23 10:24:27;;;;;;;;;;;;;;;;;;2208988;59;1162;-69
2023/03/23 10:27:03;;;;;;;;;;;;;;;;;;2209534;67;1301;-69
2023/03/23 10:29:36;;;;;;;;;;;;;;;;;;2210059;67;1105;-69
2023/03/23 10:32:12;;;;;;;;;;;;;;;;;;2210280;67;1937;-69
2023/03/23 10:34:43;;;;;;;;;;;;;;;;;;2209842;59;1228;-70
2023/03/23 10:37:17;;;;;;;;;;;;;;;;;;2209642;67;1207;-69
2023/03/23 10:39:55;;;;;;;;;;;;;;;;;;2207992;67;1805;-69
2023/03/23 10:42:29;;;;;;;;;;;;;;;;;;2209880;67;1113;-69
2023/03/23 10:45:10;;;;;;;;;;;;;;;;;;2210110;67;1145;-69
2023/03/23 10:47:43;;;;;;;;;;;;;;;;;;2210435;59;1259;-70
2023/03/23 10:50:17;;;;;;;;;;;;;;;;;;2209722;67;1165;-69
2023/03/23 10:52:50;;;;;;;;;;;;;;;;;;2209902;67;1929;-69
2023/03/23 10:55:22;;;;;;;;;;;;;;;;;;2211276;67;1220;-70
2023/03/23 10:58:03;;;;;;;;;;;;;;;;;;2210133;67;1187;-69
2023/03/23 11:00:40;;;;;;;;;;;;;;;;;;2210142;67;1067;-70
2023/03/23 11:03:14;;;;;;;;;;;;;;;;;;2210809;67;1092;-69
2023/03/23 11:05:48;;;;;;;;;;;;;;;;;;2210461;67;1466;-70
2023/03/23 11:08:23;;;;;;;;;;;;;;;;;;2213656;67;1297;-69
2023/03/23 11:10:55;;;;;;;;;;;;;;;;;;2212062;67;1049;-70
2023/03/23 11:13:32;;;;;;;;;;;;;;;;;;2220398;59;1908;-67
2023/03/23 11:16:03;;;;;;;;;;;;;;;;;;2220877;67;1513;-69
2023/03/23 11:18:39;;;;;;;;;;;;;;;;;;2221652;67;1258;-69
2023/03/23 11:21:11;;;;;;;;;;;;;;;;;;2220684;67;1094;-69
2023/03/23 11:23:49;;;;;;;;;;;;;;;;;;2220732;67;1146;-69
2023/03/23 11:26:37;;;;;;;;;;;;;;;;;;2221523;67;1077;-69
2023/03/23 11:29:17;;;;;;;;;;;;;;;;;;2220575;67;1159;-69
2023/03/23 11:31:52;;;;;;;;;;;;;;;;;;2221221;67;1937;-69
2023/03/23 11:34:30;;;;;;;;;;;;;;;;;;2221119;67;1029;-69
2023/03/23 11:37:03;;;;;;;;;;;;;;;;;;2218840;67;1125;-69
2023/03/23 11:39:34;;;;;;;;;;;;;;;;;;2218919;67;1149;-69
2023/03/23 11:42:12;;;;;;;;;;;;;;;;;;2218476;67;1216;-72
2023/03/23 11:44:46;;;;;;;;;;;;;;;;;;2209743;67;1133;-69
2023/03/23 11:47:17;;;;;;;;;;;;;;;;;;2209688;59;1287;-69
2023/03/23 11:49:48;;;;;;;;;;;;;;;;;;2210191;67;1219;-69
2023/03/23 11:52:40;;;;;;;;;;;;;;;;;;2208309;67;1936;-69
2023/03/23 11:55:28;;;;;;;;;;;;;;;;;;2211257;59;1297;-69
2023/03/23 11:58:00;;;;;;;;;;;;;;;;;;2211230;67;1275;-70
2023/03/23 12:00:31;;;;;;;;;;;;;;;;;;2209499;67;1103;-69
2023/03/23 12:03:06;;;;;;;;;;;;;;;;;;2211724;67;1014;-69
2023/03/23 12:06:00;;;;;;;;;;;;;;;;;;2205941;67;1628;-70
2023/03/23 12:08:57;;;;;;;;;;;;;;;;;;2208844;67;1255;-70
2023/03/23 12:11:32;;;;;;;;;;;;;;;;;;2208920;67;1213;-69
2023/03/23 12:14:29;;;;;;;;;;;;;;;;;;2209891;59;1979;-69
2023/03/23 12:17:00;;;;;;;;;;;;;;;;;;2208856;67;1093;-69
2023/03/23 12:19:33;;;;;;;;;;;;;;;;;;2209589;67;1230;-69
2023/03/23 12:22:24;;;;;;;;;;;;;;;;;;2208585;59;1336;-69
2023/03/23 12:25:09;;;;;;;;;;;;;;;;;;2209672;67;1072;-69
2023/03/23 12:27:45;;;;;;;;;;;;;;;;;;2207990;67;1289;-69
2023/03/23 12:30:47;;;;;;;;;;;;;;;;;;2209298;59;1081;-69
2023/03/23 12:33:24;;;;;;;;;;;;;;;;;;2201279;59;1924;-69
2023/03/23 12:36:03;;;;;;;;;;;;;;;;;;2209446;67;1073;-70
2023/03/23 12:39:06;;;;;;;;;;;;;;;;;;2209711;67;1299;-69
2023/03/23 12:41:55;;;;;;;;;;;;;;;;;;2201803;59;1777;-69
2023/03/23 12:44:43;;;;;;;;;;;;;;;;;;2208965;67;1155;-69
2023/03/23 12:47:22;;;;;;;;;;;;;;;;;;2209093;59;1123;-70
2023/03/23 12:50:00;;;;;;;;;;;;;;;;;;2211547;67;1280;-69
2023/03/23 12:52:31;;;;;;;;;;;;;;;;;;2211388;67;1942;-69
2023/03/23 12:55:21;;;;;;;;;;;;;;;;;;2209833;67;1121;-69
2023/03/23 12:58:01;;;;;;;;;;;;;;;;;;2209304;59;1315;-70
2023/03/23 13:00:51;;;;;;;;;;;;;;;;;;2209528;59;1250;-70
2023/03/23 13:03:45;;;;;;;;;;;;;;;;;;2209561;67;1177;-69
2023/03/23 13:06:29;;;;;;;;;;;;;;;;;;2209087;67;1264;-69
2023/03/23 13:09:03;;;;;;;;;;;;;;;;;;2208480;59;1241;-69
2023/03/23 13:11:35;;;;;;;;;;;;;;;;;;2208463;67;1198;-69
2023/03/23 13:14:29;;;;;;;;;;;;;;;;;;2209325;67;1939;-69
2023/03/23 13:17:19;;;;;;;;;;;;;;;;;;2209310;67;1122;-69
2023/03/23 13:20:11;;;;;;;;;;;;;;;;;;2209393;67;1231;-69
2023/03/23 13:22:47;;;;;;;;;;;;;;;;;;2208096;67;1271;-69
2023/03/23 13:25:38;;;;;;;;;;;;;;;;;;2210029;67;1287;-69
2023/03/23 13:28:14;;;;;;;;;;;;;;;;;;2207980;59;1420;-69
2023/03/23 13:30:52;;;;;;;;;;;;;;;;;;2208584;67;1218;-69
2023/03/23 13:33:23;;;;;;;;;;;;;;;;;;2208861;67;1941;-69
2023/03/23 13:35:54;;;;;;;;;;;;;;;;;;2209828;67;1022;-69
2023/03/23 13:38:26;;;;;;;;;;;;;;;;;;2209788;59;1328;-69
2023/03/23 13:40:57;;;;;;;;;;;;;;;;;;2208752;67;1163;-69
2023/03/23 13:43:29;;;;;;;;;;;;;;;;;;2210346;67;1098;-69
2023/03/23 13:46:07;;;;;;;;;;;;;;;;;;2209465;59;1127;-69
2023/03/23 13:48:43;;;;;;;;;;;;;;;;;;2208398;59;1233;-69
2023/03/23 13:51:32;;;;;;;;;;;;;;;;;;2209080;67;1108;-69
2023/03/23 13:54:06;;;;;;;;;;;;;;;;;;2208648;67;1941;-69
2023/03/23 13:56:40;;;;;;;;;;;;;;;;;;2209222;67;1097;-69
2023/03/23 13:59:14;;;;;;;;;;;;;;;;;;2209933;67;1252;-70
2023/03/23 14:01:45;;;;;;;;;;;;;;;;;;2208910;67;1188;-72
2023/03/23 14:04:17;;;;;;;;;;;;;;;;;;2209603;67;992;-69
2023/03/23 14:06:50;;;;;;;;;;;;;;;;;;2209470;59;1263;-69
2023/03/23 14:09:29;;;;;;;;;;;;;;;;;;2209019;67;1219;-70
2023/03/23 14:12:08;;;;;;;;;;;;;;;;;;2209224;67;1940;-69
2023/03/23 14:14:46;;;;;;;;;;;;;;;;;;2209538;67;1116;-69
2023/03/23 14:17:18;;;;;;;;;;;;;;;;;;2209962;59;1224;-69
2023/03/23 14:19:52;;;;;;;;;;;;;;;;;;2209258;67;1286;-69
2023/03/23 14:22:26;;;;;;;;;;;;;;;;;;2208714;67;1274;-69
2023/03/23 14:25:16;;;;;;;;;;;;;;;;;;2209915;67;1105;-69
2023/03/23 14:27:47;;;;;;;;;;;;;;;;;;2209132;67;1203;-69
2023/03/23 14:30:19;;;;;;;;;;;;;;;;;;2210017;67;1931;-69
2023/03/23 14:32:50;;;;;;;;;;;;;;;;;;2209696;67;1927;-69
2023/03/23 14:35:23;;;;;;;;;;;;;;;;;;2210961;67;1262;-69
2023/03/23 14:37:55;;;;;;;;;;;;;;;;;;2209483;67;1210;-69
2023/03/23 14:40:29;;;;;;;;;;;;;;;;;;2209073;67;1292;-70
2023/03/23 14:43:00;;;;;;;;;;;;;;;;;;2212344;67;1670;-69
2023/03/23 14:45:31;;;;;;;;;;;;;;;;;;2208332;67;1037;-69
2023/03/23 14:48:02;;;;;;;;;;;;;;;;;;2209767;59;1268;-69
2023/03/23 14:50:39;;;;;;;;;;;;;;;;;;2209152;67;1158;-69
2023/03/23 14:53:22;;;;;;;;;;;;;;;;;;2208697;67;1925;-69
2023/03/23 14:55:53;;;;;;;;;;;;;;;;;;2209859;67;1066;-69
2023/03/23 14:58:23;;;;;;;;;;;;;;;;;;2208783;67;1211;-69
2023/03/23 15:01:06;;;;;;;;;;;;;;;;;;2210296;67;1103;-69
2023/03/23 15:03:52;;;;;;;;;;;;;;;;;;2209636;67;1178;-69
2023/03/23 15:06:25;;;;;;;;;;;;;;;;;;2208573;67;1028;-69
2023/03/23 15:08:57;;;;;;;;;;;;;;;;;;2209603;67;1117;-69
2023/03/23 15:11:29;;;;;;;;;;;;;;;;;;2208961;67;1238;-69
2023/03/23 15:14:07;;;;;;;;;;;;;;;;;;2208846;67;1992;-69
2023/03/23 15:16:41;;;;;;;;;;;;;;;;;;2209632;67;1422;-69
2023/03/23 15:19:15;;;;;;;;;;;;;;;;;;2209342;67;1268;-69
2023/03/23 15:21:47;;;;;;;;;;;;;;;;;;2208376;59;1251;-69
2023/03/23 15:24:20;;;;;;;;;;;;;;;;;;2208191;59;1219;-69
2023/03/23 15:26:51;;;;;;;;;;;;;;;;;;2209652;67;1741;-69
2023/03/23 15:29:24;;;;;;;;;;;;;;;;;;2208801;67;1196;-69
2023/03/23 15:31:55;;;;;;;;;;;;;;;;;;2209706;67;1933;-69
2023/03/23 15:34:26;;;;;;;;;;;;;;;;;;2209572;67;1172;-69
2023/03/23 15:36:58;;;;;;;;;;;;;;;;;;2209850;67;1292;-69
2023/03/23 15:39:29;;;;;;;;;;;;;;;;;;2209334;67;1284;-69
2023/03/23 15:42:00;;;;;;;;;;;;;;;;;;2208411;67;1125;-69
2023/03/23 15:44:32;;;;;;;;;;;;;;;;;;2209391;67;1072;-69
2023/03/23 15:47:20;;;;;;;;;;;;;;;;;;2211614;59;1160;-69
2023/03/23 15:49:59;;;;;;;;;;;;;;;;;;2211087;67;1273;-69
2023/03/23 15:52:29;;;;;;;;;;;;;;;;;;2208824;67;1936;-69
2023/03/23 15:54:59;;;;;;;;;;;;;;;;;;2211729;67;1161;-69
2023/03/23 15:57:30;;;;;;;;;;;;;;;;;;2209182;59;1199;-69
2023/03/23 16:00:00;;;;;;;;;;;;;;;;;;2209527;67;1138;-69
2023/03/23 16:02:32;;;;;;;;;;;;;;;;;;2209879;67;1199;-69
2023/03/23 16:05:03;;;;;;;;;;;;;;;;;;2208443;67;1017;-69
2023/03/23 16:07:34;;;;;;;;;;;;;;;;;;2210096;67;1065;-69
2023/03/23 16:10:05;;;;;;;;;;;;;;;;;;2209891;67;1179;-69
2023/03/23 16:12:35;;;;;;;;;;;;;;;;;;2209730;67;1940;-69
2023/03/23 16:15:07;;;;;;;;;;;;;;;;;;2209586;67;1304;-69
2023/03/23 16:17:38;;;;;;;;;;;;;;;;;;2210285;67;1105;-70
2023/03/23 16:20:13;;;;;;;;;;;;;;;;;;2209193;67;1258;-69
2023/03/23 16:22:44;;;;;;;;;;;;;;;;;;2210593;67;1259;-69
2023/03/23 16:25:14;;;;;;;;;;;;;;;;;;2210477;67;1202;-69
2023/03/23 16:27:48;;;;;;;;;;;;;;;;;;2209117;67;1136;-69
2023/03/23 16:30:19;;;;;;;;;;;;;;;;;;2210967;67;1107;-69
2023/03/23 16:32:52;;;;;;;;;;;;;;;;;;2209683;67;2008;-69
2023/03/23 16:35:22;;;;;;;;;;;;;;;;;;2210309;67;1167;-69
2023/03/23 16:37:54;;;;;;;;;;;;;;;;;;2209157;67;1302;-69
2023/03/23 16:40:26;;;;;;;;;;;;;;;;;;2208808;67;1183;-69
2023/03/23 16:42:56;;;;;;;;;;;;;;;;;;2208621;67;1174;-69
2023/03/23 16:45:26;;;;;;;;;;;;;;;;;;2210368;67;1119;-69
2023/03/23 16:48:00;;;;;;;;;;;;;;;;;;2211701;59;1209;-69
2023/03/23 16:50:30;;;;;;;;;;;;;;;;;;2208792;60;1253;-69
2023/03/23 16:53:10;;;;;;;;;;;;;;;;;;2210212;67;2007;-69
2023/03/23 16:55:40;;;;;;;;;;;;;;;;;;2209715;67;1187;-69
2023/03/23 16:58:11;;;;;;;;;;;;;;;;;;2210566;67;1222;-69
2023/03/23 17:00:41;;;;;;;;;;;;;;;;;;2209872;67;1159;-69
2023/03/23 17:03:12;;;;;;;;;;;;;;;;;;2208892;67;1184;-69
2023/03/23 17:05:43;;;;;;;;;;;;;;;;;;2209107;67;1301;-69
2023/03/23 17:08:14;;;;;;;;;;;;;;;;;;2209944;67;1236;-69
2023/03/23 17:10:45;;;;;;;;;;;;;;;;;;2210073;59;1159;-69
2023/03/23 17:13:16;;;;;;;;;;;;;;;;;;2208650;67;1995;-69
2023/03/23 17:15:46;;;;;;;;;;;;;;;;;;2208850;67;1263;-69
2023/03/23 17:18:16;;;;;;;;;;;;;;;;;;2208961;67;1217;-69
2023/03/23 17:20:47;;;;;;;;;;;;;;;;;;2209069;67;1162;-69
2023/03/23 17:23:17;;;;;;;;;;;;;;;;;;2209643;59;1220;-69
2023/03/23 17:25:47;;;;;;;;;;;;;;;;;;2209743;67;1045;-69
2023/03/23 17:28:18;;;;;;;;;;;;;;;;;;2209667;67;1255;-69
2023/03/23 17:30:50;;;;;;;;;;;;;;;;;;2209837;67;1223;-69
2023/03/23 17:33:23;;;;;;;;;;;;;;;;;;2210193;67;1943;-70
2023/03/23 17:35:53;;;;;;;;;;;;;;;;;;2209859;67;1075;-69
2023/03/23 17:38:24;;;;;;;;;;;;;;;;;;2206641;67;1233;-69
2023/03/23 17:40:55;;;;;;;;;;;;;;;;;;2209475;67;1148;-69
2023/03/23 17:43:26;;;;;;;;;;;;;;;;;;2209317;67;1178;-69
2023/03/23 17:46:04;;;;;;;;;;;;;;;;;;2209952;67;1010;-68
2023/03/23 17:48:37;;;;;;;;;;;;;;;;;;2209110;59;1306;-69
2023/03/23 17:51:07;;;;;;;;;;;;;;;;;;2210371;67;1108;-69
2023/03/23 17:53:37;;;;;;;;;;;;;;;;;;2210293;67;1933;-69